sensor_id;sensor_type;location;lat;lon;timestamp;temperature;humidity
51982;DHT22;37998;53.416;6.730;2023-11-19T00:00:34;10.10;99.90
51982;DHT22;37998;53.416;6.730;2023-11-19T00:03:00;10.20;99.90
51982;DHT22;37998;53.416;6.730;2023-11-19T00:05:26;10.20;99.90
51982;DHT22;37998;53.416;6.730;2023-11-19T00:07:53;10.30;99.90
51982;DHT22;37998;53.416;6.730;2023-11-19T00:10:19;11.20;99.90
51982;DHT22;37998;53.416;6.730;2023-11-19T00:12:49;10.40;99.90
51982;DHT22;37998;53.416;6.730;2023-11-19T00:15:16;10.40;99.90
51982;DHT22;37998;53.416;6.730;2023-11-19T00:17:47;10.50;99.90
51982;DHT22;37998;53.416;6.730;2023-11-19T00:20:14;10.50;99.90
51982;DHT22;37998;53.416;6.730;2023-11-19T00:22:41;10.60;99.90
51982;DHT22;37998;53.416;6.730;2023-11-19T00:25:08;10.70;99.90
51982;DHT22;37998;53.416;6.730;2023-11-19T00:27:37;10.80;99.90
51982;DHT22;37998;53.416;6.730;2023-11-19T00:30:05;10.90;99.90
51982;DHT22;37998;53.416;6.730;2023-11-19T00:32:33;11.00;99.90
51982;DHT22;37998;53.416;6.730;2023-11-19T00:34:59;11.10;99.90
51982;DHT22;37998;53.416;6.730;2023-11-19T00:37:25;11.10;99.90
51982;DHT22;37998;53.416;6.730;2023-11-19T00:39:52;11.20;99.90
51982;DHT22;37998;53.416;6.730;2023-11-19T00:42:18;11.20;99.90
51982;DHT22;37998;53.416;6.730;2023-11-19T00:44:44;11.30;99.90
51982;DHT22;37998;53.416;6.730;2023-11-19T00:47:11;11.30;99.90
51982;DHT22;37998;53.416;6.730;2023-11-19T00:49:38;11.30;99.90
51982;DHT22;37998;53.416;6.730;2023-11-19T00:52:04;11.30;99.90
51982;DHT22;37998;53.416;6.730;2023-11-19T00:54:30;11.30;99.90
51982;DHT22;37998;53.416;6.730;2023-11-19T00:56:56;11.40;99.90
51982;DHT22;37998;53.416;6.730;2023-11-19T00:59:22;11.50;99.90
51982;DHT22;37998;53.416;6.730;2023-11-19T01:01:48;11.40;99.90
51982;DHT22;37998;53.416;6.730;2023-11-19T01:04:15;11.50;99.90
51982;DHT22;37998;53.416;6.730;2023-11-19T01:06:41;11.60;99.90
51982;DHT22;37998;53.416;6.730;2023-11-19T01:09:08;11.60;99.90
51982;DHT22;37998;53.416;6.730;2023-11-19T01:11:34;11.60;99.90
51982;DHT22;37998;53.416;6.730;2023-11-19T01:14:00;11.70;99.90
51982;DHT22;37998;53.416;6.730;2023-11-19T01:16:27;11.70;99.90
51982;DHT22;37998;53.416;6.730;2023-11-19T01:18:53;11.60;99.90
51982;DHT22;37998;53.416;6.730;2023-11-19T01:21:19;11.70;99.90
51982;DHT22;37998;53.416;6.730;2023-11-19T01:23:45;11.70;99.90
51982;DHT22;37998;53.416;6.730;2023-11-19T01:26:14;11.80;99.90
51982;DHT22;37998;53.416;6.730;2023-11-19T01:28:40;11.80;99.90
51982;DHT22;37998;53.416;6.730;2023-11-19T01:31:11;11.80;99.90
51982;DHT22;37998;53.416;6.730;2023-11-19T01:33:38;11.80;99.90
51982;DHT22;37998;53.416;6.730;2023-11-19T01:36:05;11.80;99.90
51982;DHT22;37998;53.416;6.730;2023-11-19T01:38:31;11.80;99.90
51982;DHT22;37998;53.416;6.730;2023-11-19T01:40:57;11.80;99.90
51982;DHT22;37998;53.416;6.730;2023-11-19T01:43:36;11.80;99.90
51982;DHT22;37998;53.416;6.730;2023-11-19T01:46:02;11.90;99.90
51982;DHT22;37998;53.416;6.730;2023-11-19T01:48:34;11.90;99.90
51982;DHT22;37998;53.416;6.730;2023-11-19T01:51:05;11.80;99.90
51982;DHT22;37998;53.416;6.730;2023-11-19T01:53:34;11.80;99.90
51982;DHT22;37998;53.416;6.730;2023-11-19T01:56:02;11.80;99.90
51982;DHT22;37998;53.416;6.730;2023-11-19T01:58:29;11.80;99.90
51982;DHT22;37998;53.416;6.730;2023-11-19T02:00:57;11.80;99.90
51982;DHT22;37998;53.416;6.730;2023-11-19T02:03:24;11.80;99.90
51982;DHT22;37998;53.416;6.730;2023-11-19T02:05:52;11.20;99.90
51982;DHT22;37998;53.416;6.730;2023-11-19T02:08:18;11.80;99.90
51982;DHT22;37998;53.416;6.730;2023-11-19T02:10:45;11.80;99.90
51982;DHT22;37998;53.416;6.730;2023-11-19T02:13:11;11.80;99.90
51982;DHT22;37998;53.416;6.730;2023-11-19T02:15:40;11.80;99.90
51982;DHT22;37998;53.416;6.730;2023-11-19T02:20:46;11.80;99.90
51982;DHT22;37998;53.416;6.730;2023-11-19T02:23:13;11.90;99.90
51982;DHT22;37998;53.416;6.730;2023-11-19T02:25:40;11.80;99.90
51982;DHT22;37998;53.416;6.730;2023-11-19T02:28:07;11.80;99.90
51982;DHT22;37998;53.416;6.730;2023-11-19T02:30:33;11.80;99.90
51982;DHT22;37998;53.416;6.730;2023-11-19T02:32:59;11.90;99.90
51982;DHT22;37998;53.416;6.730;2023-11-19T02:35:31;11.90;99.90
51982;DHT22;37998;53.416;6.730;2023-11-19T02:37:58;11.90;99.90
51982;DHT22;37998;53.416;6.730;2023-11-19T02:40:26;11.90;99.90
51982;DHT22;37998;53.416;6.730;2023-11-19T02:42:53;11.90;99.90
51982;DHT22;37998;53.416;6.730;2023-11-19T02:45:24;11.90;99.90
51982;DHT22;37998;53.416;6.730;2023-11-19T02:47:51;12.00;99.90
51982;DHT22;37998;53.416;6.730;2023-11-19T02:50:18;12.00;99.90
51982;DHT22;37998;53.416;6.730;2023-11-19T02:52:51;11.00;99.90
51982;DHT22;37998;53.416;6.730;2023-11-19T02:55:17;11.90;99.90
51982;DHT22;37998;53.416;6.730;2023-11-19T02:57:44;11.80;99.90
51982;DHT22;37998;53.416;6.730;2023-11-19T03:00:18;11.80;99.90
51982;DHT22;37998;53.416;6.730;2023-11-19T03:02:44;11.80;99.90
51982;DHT22;37998;53.416;6.730;2023-11-19T03:05:14;11.80;99.90
51982;DHT22;37998;53.416;6.730;2023-11-19T03:07:42;12.80;99.90
51982;DHT22;37998;53.416;6.730;2023-11-19T03:10:11;11.70;99.90
51982;DHT22;37998;53.416;6.730;2023-11-19T03:12:40;11.70;99.90
51982;DHT22;37998;53.416;6.730;2023-11-19T03:15:07;11.70;99.90
51982;DHT22;37998;53.416;6.730;2023-11-19T03:17:39;11.70;99.90
51982;DHT22;37998;53.416;6.730;2023-11-19T03:20:07;11.70;99.90
51982;DHT22;37998;53.416;6.730;2023-11-19T03:22:36;11.60;99.90
51982;DHT22;37998;53.416;6.730;2023-11-19T03:25:02;11.60;99.90
51982;DHT22;37998;53.416;6.730;2023-11-19T03:27:28;11.60;99.90
51982;DHT22;37998;53.416;6.730;2023-11-19T03:29:55;11.60;99.90
51982;DHT22;37998;53.416;6.730;2023-11-19T03:32:21;11.60;99.90
51982;DHT22;37998;53.416;6.730;2023-11-19T03:34:46;11.50;99.90
51982;DHT22;37998;53.416;6.730;2023-11-19T03:37:12;11.50;99.90
51982;DHT22;37998;53.416;6.730;2023-11-19T03:39:42;11.50;99.90
51982;DHT22;37998;53.416;6.730;2023-11-19T03:42:08;11.50;99.90
51982;DHT22;37998;53.416;6.730;2023-11-19T03:44:34;11.50;99.90
51982;DHT22;37998;53.416;6.730;2023-11-19T03:47:00;11.50;99.90
51982;DHT22;37998;53.416;6.730;2023-11-19T03:49:26;11.50;99.90
51982;DHT22;37998;53.416;6.730;2023-11-19T03:51:52;11.50;99.90
51982;DHT22;37998;53.416;6.730;2023-11-19T03:54:18;11.50;99.90
51982;DHT22;37998;53.416;6.730;2023-11-19T03:56:44;11.50;99.90
51982;DHT22;37998;53.416;6.730;2023-11-19T03:59:09;11.50;99.90
51982;DHT22;37998;53.416;6.730;2023-11-19T04:01:36;11.50;99.90
51982;DHT22;37998;53.416;6.730;2023-11-19T04:04:03;11.50;99.90
51982;DHT22;37998;53.416;6.730;2023-11-19T04:06:29;11.50;99.90
51982;DHT22;37998;53.416;6.730;2023-11-19T04:08:54;11.50;99.90
51982;DHT22;37998;53.416;6.730;2023-11-19T04:11:21;11.50;99.90
51982;DHT22;37998;53.416;6.730;2023-11-19T04:13:47;11.50;99.90
51982;DHT22;37998;53.416;6.730;2023-11-19T04:16:13;11.50;99.90
51982;DHT22;37998;53.416;6.730;2023-11-19T04:18:41;11.60;99.90
51982;DHT22;37998;53.416;6.730;2023-11-19T04:21:07;11.60;99.90
51982;DHT22;37998;53.416;6.730;2023-11-19T04:23:33;11.70;99.90
51982;DHT22;37998;53.416;6.730;2023-11-19T04:26:02;11.70;99.90
51982;DHT22;37998;53.416;6.730;2023-11-19T04:28:30;11.70;99.90
51982;DHT22;37998;53.416;6.730;2023-11-19T04:30:56;11.70;99.90
51982;DHT22;37998;53.416;6.730;2023-11-19T04:33:22;11.70;99.90
51982;DHT22;37998;53.416;6.730;2023-11-19T04:35:48;11.90;99.90
51982;DHT22;37998;53.416;6.730;2023-11-19T04:38:13;11.70;99.90
51982;DHT22;37998;53.416;6.730;2023-11-19T04:40:40;11.70;99.90
51982;DHT22;37998;53.416;6.730;2023-11-19T04:43:06;11.70;99.90
51982;DHT22;37998;53.416;6.730;2023-11-19T04:45:32;11.70;99.90
51982;DHT22;37998;53.416;6.730;2023-11-19T04:47:58;11.80;99.90
51982;DHT22;37998;53.416;6.730;2023-11-19T04:50:24;11.70;99.90
51982;DHT22;37998;53.416;6.730;2023-11-19T04:52:52;11.80;99.90
51982;DHT22;37998;53.416;6.730;2023-11-19T04:55:19;11.80;99.90
51982;DHT22;37998;53.416;6.730;2023-11-19T04:57:45;11.80;99.90
51982;DHT22;37998;53.416;6.730;2023-11-19T05:00:12;11.80;99.90
51982;DHT22;37998;53.416;6.730;2023-11-19T05:02:39;11.80;99.90
51982;DHT22;37998;53.416;6.730;2023-11-19T05:05:05;11.80;99.90
51982;DHT22;37998;53.416;6.730;2023-11-19T05:07:31;11.80;99.90
51982;DHT22;37998;53.416;6.730;2023-11-19T05:09:57;11.80;99.90
51982;DHT22;37998;53.416;6.730;2023-11-19T05:12:24;11.80;99.90
51982;DHT22;37998;53.416;6.730;2023-11-19T05:14:50;11.70;99.90
51982;DHT22;37998;53.416;6.730;2023-11-19T05:17:17;11.70;99.90
51982;DHT22;37998;53.416;6.730;2023-11-19T05:19:46;11.70;99.90
51982;DHT22;37998;53.416;6.730;2023-11-19T05:22:13;11.70;99.90
51982;DHT22;37998;53.416;6.730;2023-11-19T05:24:39;11.70;99.90
51982;DHT22;37998;53.416;6.730;2023-11-19T05:27:06;11.70;99.90
51982;DHT22;37998;53.416;6.730;2023-11-19T05:29:33;11.70;99.90
51982;DHT22;37998;53.416;6.730;2023-11-19T05:31:59;11.70;99.90
51982;DHT22;37998;53.416;6.730;2023-11-19T05:34:25;11.70;99.90
51982;DHT22;37998;53.416;6.730;2023-11-19T05:36:51;11.70;99.90
51982;DHT22;37998;53.416;6.730;2023-11-19T05:39:17;11.70;99.90
51982;DHT22;37998;53.416;6.730;2023-11-19T05:41:46;11.70;99.90
51982;DHT22;37998;53.416;6.730;2023-11-19T05:44:12;11.70;99.90
51982;DHT22;37998;53.416;6.730;2023-11-19T05:46:38;11.70;99.90
51982;DHT22;37998;53.416;6.730;2023-11-19T05:49:08;11.80;99.90
51982;DHT22;37998;53.416;6.730;2023-11-19T05:51:40;11.70;99.90
51982;DHT22;37998;53.416;6.730;2023-11-19T05:54:08;11.70;99.90
51982;DHT22;37998;53.416;6.730;2023-11-19T05:56:34;11.70;99.90
51982;DHT22;37998;53.416;6.730;2023-11-19T05:59:00;11.60;99.90
51982;DHT22;37998;53.416;6.730;2023-11-19T06:01:27;11.60;99.90
51982;DHT22;37998;53.416;6.730;2023-11-19T06:03:52;11.70;99.90
51982;DHT22;37998;53.416;6.730;2023-11-19T06:06:18;11.70;99.90
51982;DHT22;37998;53.416;6.730;2023-11-19T06:08:44;11.70;99.90
51982;DHT22;37998;53.416;6.730;2023-11-19T06:11:11;11.70;99.90
51982;DHT22;37998;53.416;6.730;2023-11-19T06:13:44;11.60;99.90
51982;DHT22;37998;53.416;6.730;2023-11-19T06:16:10;11.60;99.90
51982;DHT22;37998;53.416;6.730;2023-11-19T06:18:36;11.60;99.90
51982;DHT22;37998;53.416;6.730;2023-11-19T06:21:02;11.50;99.90
51982;DHT22;37998;53.416;6.730;2023-11-19T06:23:28;11.50;99.90
51982;DHT22;37998;53.416;6.730;2023-11-19T06:25:54;11.50;99.90
51982;DHT22;37998;53.416;6.730;2023-11-19T06:28:20;11.50;99.90
51982;DHT22;37998;53.416;6.730;2023-11-19T06:30:46;11.50;99.90
51982;DHT22;37998;53.416;6.730;2023-11-19T06:33:15;11.50;99.90
51982;DHT22;37998;53.416;6.730;2023-11-19T06:35:41;11.50;99.90
51982;DHT22;37998;53.416;6.730;2023-11-19T06:38:06;11.40;99.90
51982;DHT22;37998;53.416;6.730;2023-11-19T06:40:33;11.40;99.90
51982;DHT22;37998;53.416;6.730;2023-11-19T06:43:00;11.40;99.90
51982;DHT22;37998;53.416;6.730;2023-11-19T06:45:26;11.40;99.90
51982;DHT22;37998;53.416;6.730;2023-11-19T06:47:52;11.40;99.90
51982;DHT22;37998;53.416;6.730;2023-11-19T06:50:18;11.30;99.90
51982;DHT22;37998;53.416;6.730;2023-11-19T06:52:45;11.30;99.90
51982;DHT22;37998;53.416;6.730;2023-11-19T06:55:11;11.30;99.90
51982;DHT22;37998;53.416;6.730;2023-11-19T06:57:37;11.30;99.90
51982;DHT22;37998;53.416;6.730;2023-11-19T07:00:05;11.20;99.90
51982;DHT22;37998;53.416;6.730;2023-11-19T07:02:31;11.20;99.90
51982;DHT22;37998;53.416;6.730;2023-11-19T07:04:57;11.20;99.90
51982;DHT22;37998;53.416;6.730;2023-11-19T07:07:23;10.10;99.90
51982;DHT22;37998;53.416;6.730;2023-11-19T07:09:49;11.20;99.90
51982;DHT22;37998;53.416;6.730;2023-11-19T07:12:16;11.10;99.90
51982;DHT22;37998;53.416;6.730;2023-11-19T07:14:42;11.10;99.90
51982;DHT22;37998;53.416;6.730;2023-11-19T07:17:08;11.10;99.90
51982;DHT22;37998;53.416;6.730;2023-11-19T07:19:35;11.10;99.90
51982;DHT22;37998;53.416;6.730;2023-11-19T07:22:02;11.10;99.90
51982;DHT22;37998;53.416;6.730;2023-11-19T07:24:28;11.10;99.90
51982;DHT22;37998;53.416;6.730;2023-11-19T07:26:54;11.10;99.90
51982;DHT22;37998;53.416;6.730;2023-11-19T07:29:20;11.10;99.90
51982;DHT22;37998;53.416;6.730;2023-11-19T07:31:48;11.10;99.90
51982;DHT22;37998;53.416;6.730;2023-11-19T07:34:15;11.20;99.90
51982;DHT22;37998;53.416;6.730;2023-11-19T07:36:40;11.10;99.90
51982;DHT22;37998;53.416;6.730;2023-11-19T07:39:07;11.10;99.90
51982;DHT22;37998;53.416;6.730;2023-11-19T07:41:34;11.30;99.90
51982;DHT22;37998;53.416;6.730;2023-11-19T07:44:00;11.20;99.90
51982;DHT22;37998;53.416;6.730;2023-11-19T07:46:26;11.20;99.90
51982;DHT22;37998;53.416;6.730;2023-11-19T07:48:52;11.20;99.90
51982;DHT22;37998;53.416;6.730;2023-11-19T07:51:18;11.20;99.90
51982;DHT22;37998;53.416;6.730;2023-11-19T07:53:44;11.30;99.90
51982;DHT22;37998;53.416;6.730;2023-11-19T07:56:10;11.30;99.90
51982;DHT22;37998;53.416;6.730;2023-11-19T07:58:36;11.30;99.90
51982;DHT22;37998;53.416;6.730;2023-11-19T08:01:03;11.30;99.90
51982;DHT22;37998;53.416;6.730;2023-11-19T08:03:29;11.30;99.90
51982;DHT22;37998;53.416;6.730;2023-11-19T08:05:57;11.30;99.90
51982;DHT22;37998;53.416;6.730;2023-11-19T08:08:23;11.30;99.90
51982;DHT22;37998;53.416;6.730;2023-11-19T08:10:49;11.40;99.90
51982;DHT22;37998;53.416;6.730;2023-11-19T08:13:18;11.40;99.90
51982;DHT22;37998;53.416;6.730;2023-11-19T08:15:44;11.40;99.90
51982;DHT22;37998;53.416;6.730;2023-11-19T08:18:10;11.50;99.90
51982;DHT22;37998;53.416;6.730;2023-11-19T08:20:36;11.40;99.90
51982;DHT22;37998;53.416;6.730;2023-11-19T08:23:02;11.40;99.90
51982;DHT22;37998;53.416;6.730;2023-11-19T08:25:29;11.50;99.90
51982;DHT22;37998;53.416;6.730;2023-11-19T08:27:55;11.40;99.90
51982;DHT22;37998;53.416;6.730;2023-11-19T08:30:21;11.50;99.90
51982;DHT22;37998;53.416;6.730;2023-11-19T08:32:46;11.60;99.90
51982;DHT22;37998;53.416;6.730;2023-11-19T08:35:12;11.60;99.90
51982;DHT22;37998;53.416;6.730;2023-11-19T08:37:38;11.60;99.90
51982;DHT22;37998;53.416;6.730;2023-11-19T08:40:04;11.60;99.90
51982;DHT22;37998;53.416;6.730;2023-11-19T08:42:30;11.60;99.90
51982;DHT22;37998;53.416;6.730;2023-11-19T08:44:56;11.70;99.90
51982;DHT22;37998;53.416;6.730;2023-11-19T08:47:22;11.70;99.90
51982;DHT22;37998;53.416;6.730;2023-11-19T08:49:51;11.70;99.90
51982;DHT22;37998;53.416;6.730;2023-11-19T08:52:18;11.70;99.90
51982;DHT22;37998;53.416;6.730;2023-11-19T08:54:44;11.70;99.90
51982;DHT22;37998;53.416;6.730;2023-11-19T08:57:09;11.70;99.90
51982;DHT22;37998;53.416;6.730;2023-11-19T08:59:36;11.70;99.90
51982;DHT22;37998;53.416;6.730;2023-11-19T09:02:05;11.70;99.90
51982;DHT22;37998;53.416;6.730;2023-11-19T09:04:30;11.70;99.90
51982;DHT22;37998;53.416;6.730;2023-11-19T09:06:58;11.60;99.90
51982;DHT22;37998;53.416;6.730;2023-11-19T09:09:24;11.60;99.90
51982;DHT22;37998;53.416;6.730;2023-11-19T09:11:49;11.60;99.90
51982;DHT22;37998;53.416;6.730;2023-11-19T09:14:15;11.60;99.90
51982;DHT22;37998;53.416;6.730;2023-11-19T09:16:41;11.60;99.90
51982;DHT22;37998;53.416;6.730;2023-11-19T09:19:07;11.60;99.90
51982;DHT22;37998;53.416;6.730;2023-11-19T09:21:33;11.60;99.90
51982;DHT22;37998;53.416;6.730;2023-11-19T09:24:02;11.60;99.90
51982;DHT22;37998;53.416;6.730;2023-11-19T09:26:28;11.60;99.90
51982;DHT22;37998;53.416;6.730;2023-11-19T09:28:54;11.70;99.90
51982;DHT22;37998;53.416;6.730;2023-11-19T09:31:21;11.70;99.90
51982;DHT22;37998;53.416;6.730;2023-11-19T09:33:47;11.70;99.90
51982;DHT22;37998;53.416;6.730;2023-11-19T09:36:13;11.80;99.90
51982;DHT22;37998;53.416;6.730;2023-11-19T09:38:45;11.80;99.90
51982;DHT22;37998;53.416;6.730;2023-11-19T09:41:11;11.90;99.90
51982;DHT22;37998;53.416;6.730;2023-11-19T09:43:39;12.00;99.90
51982;DHT22;37998;53.416;6.730;2023-11-19T09:46:07;12.00;99.90
51982;DHT22;37998;53.416;6.730;2023-11-19T09:48:36;12.10;99.90
51982;DHT22;37998;53.416;6.730;2023-11-19T09:51:07;12.10;99.90
51982;DHT22;37998;53.416;6.730;2023-11-19T09:53:34;12.10;99.90
51982;DHT22;37998;53.416;6.730;2023-11-19T09:56:02;12.10;99.90
51982;DHT22;37998;53.416;6.730;2023-11-19T09:58:31;12.20;99.90
51982;DHT22;37998;53.416;6.730;2023-11-19T10:00:58;12.30;99.90
51982;DHT22;37998;53.416;6.730;2023-11-19T10:03:35;12.30;99.90
51982;DHT22;37998;53.416;6.730;2023-11-19T10:06:05;12.40;99.90
51982;DHT22;37998;53.416;6.730;2023-11-19T10:08:32;12.40;99.90
51982;DHT22;37998;53.416;6.730;2023-11-19T10:10:58;12.50;99.90
51982;DHT22;37998;53.416;6.730;2023-11-19T10:13:28;12.60;99.90
51982;DHT22;37998;53.416;6.730;2023-11-19T10:15:56;12.60;99.90
51982;DHT22;37998;53.416;6.730;2023-11-19T10:18:26;12.70;99.90
51982;DHT22;37998;53.416;6.730;2023-11-19T10:20:53;12.70;99.90
51982;DHT22;37998;53.416;6.730;2023-11-19T10:23:20;12.80;99.90
51982;DHT22;37998;53.416;6.730;2023-11-19T10:25:46;12.80;99.90
51982;DHT22;37998;53.416;6.730;2023-11-19T10:28:15;12.80;99.90
51982;DHT22;37998;53.416;6.730;2023-11-19T10:30:42;12.90;99.90
51982;DHT22;37998;53.416;6.730;2023-11-19T10:35:37;12.70;99.90
51982;DHT22;37998;53.416;6.730;2023-11-19T10:38:15;12.70;99.90
51982;DHT22;37998;53.416;6.730;2023-11-19T10:40:42;12.80;99.90
51982;DHT22;37998;53.416;6.730;2023-11-19T10:43:09;12.70;99.90
51982;DHT22;37998;53.416;6.730;2023-11-19T10:45:36;12.70;99.90
51982;DHT22;37998;53.416;6.730;2023-11-19T10:48:03;12.70;99.90
51982;DHT22;37998;53.416;6.730;2023-11-19T10:50:36;12.60;99.90
51982;DHT22;37998;53.416;6.730;2023-11-19T10:53:04;12.70;99.90
51982;DHT22;37998;53.416;6.730;2023-11-19T10:55:32;12.70;99.90
51982;DHT22;37998;53.416;6.730;2023-11-19T10:58:00;12.80;99.90
51982;DHT22;37998;53.416;6.730;2023-11-19T11:00:44;12.70;99.90
51982;DHT22;37998;53.416;6.730;2023-11-19T11:03:19;12.70;99.90
51982;DHT22;37998;53.416;6.730;2023-11-19T11:05:51;12.60;99.90
51982;DHT22;37998;53.416;6.730;2023-11-19T11:08:19;12.60;99.90
51982;DHT22;37998;53.416;6.730;2023-11-19T11:10:48;12.60;99.90
51982;DHT22;37998;53.416;6.730;2023-11-19T11:13:17;12.50;99.90
51982;DHT22;37998;53.416;6.730;2023-11-19T11:15:47;12.50;99.90
51982;DHT22;37998;53.416;6.730;2023-11-19T11:18:14;12.50;99.90
51982;DHT22;37998;53.416;6.730;2023-11-19T11:20:40;12.50;99.90
51982;DHT22;37998;53.416;6.730;2023-11-19T11:28:43;12.50;99.90
51982;DHT22;37998;53.416;6.730;2023-11-19T11:31:44;12.50;99.90
51982;DHT22;37998;53.416;6.730;2023-11-19T11:36:57;12.50;99.90
51982;DHT22;37998;53.416;6.730;2023-11-19T11:39:29;12.60;99.90
51982;DHT22;37998;53.416;6.730;2023-11-19T11:44:58;12.60;99.90
51982;DHT22;37998;53.416;6.730;2023-11-19T11:47:24;12.50;99.90
51982;DHT22;37998;53.416;6.730;2023-11-19T11:49:51;12.50;99.90
51982;DHT22;37998;53.416;6.730;2023-11-19T11:52:17;12.50;99.90
51982;DHT22;37998;53.416;6.730;2023-11-19T11:54:44;12.40;99.90
51982;DHT22;37998;53.416;6.730;2023-11-19T11:57:12;12.50;99.90
51982;DHT22;37998;53.416;6.730;2023-11-19T12:02:21;12.40;99.90
51982;DHT22;37998;53.416;6.730;2023-11-19T12:04:52;12.50;99.90
51982;DHT22;37998;53.416;6.730;2023-11-19T12:07:20;12.30;99.90
51982;DHT22;37998;53.416;6.730;2023-11-19T12:10:08;12.30;99.90
51982;DHT22;37998;53.416;6.730;2023-11-19T12:12:34;12.30;99.90
51982;DHT22;37998;53.416;6.730;2023-11-19T12:15:02;12.30;99.90
51982;DHT22;37998;53.416;6.730;2023-11-19T12:20:04;12.40;99.90
51982;DHT22;37998;53.416;6.730;2023-11-19T12:22:31;12.40;99.90
51982;DHT22;37998;53.416;6.730;2023-11-19T12:24:58;12.40;99.90
51982;DHT22;37998;53.416;6.730;2023-11-19T12:27:24;12.30;99.90
51982;DHT22;37998;53.416;6.730;2023-11-19T12:29:51;12.30;99.90
51982;DHT22;37998;53.416;6.730;2023-11-19T12:32:17;12.30;99.90
51982;DHT22;37998;53.416;6.730;2023-11-19T12:34:45;12.20;99.90
51982;DHT22;37998;53.416;6.730;2023-11-19T12:37:11;12.20;99.90
51982;DHT22;37998;53.416;6.730;2023-11-19T12:39:37;12.10;99.90
51982;DHT22;37998;53.416;6.730;2023-11-19T12:42:03;11.90;99.90
51982;DHT22;37998;53.416;6.730;2023-11-19T12:44:29;12.00;99.90
51982;DHT22;37998;53.416;6.730;2023-11-19T12:49:28;11.90;99.90
51982;DHT22;37998;53.416;6.730;2023-11-19T12:51:54;11.80;99.90
51982;DHT22;37998;53.416;6.730;2023-11-19T12:54:31;11.80;99.90
51982;DHT22;37998;53.416;6.730;2023-11-19T12:56:57;11.80;99.90
51982;DHT22;37998;53.416;6.730;2023-11-19T12:59:23;11.80;99.90
51982;DHT22;37998;53.416;6.730;2023-11-19T13:04:21;11.90;99.90
51982;DHT22;37998;53.416;6.730;2023-11-19T13:06:47;11.90;99.90
51982;DHT22;37998;53.416;6.730;2023-11-19T13:09:23;11.90;99.90
51982;DHT22;37998;53.416;6.730;2023-11-19T13:11:50;11.90;99.90
51982;DHT22;37998;53.416;6.730;2023-11-19T13:14:16;11.90;99.90
51982;DHT22;37998;53.416;6.730;2023-11-19T13:16:43;11.90;99.90
51982;DHT22;37998;53.416;6.730;2023-11-19T13:19:10;12.00;99.90
51982;DHT22;37998;53.416;6.730;2023-11-19T13:21:35;12.00;99.90
51982;DHT22;37998;53.416;6.730;2023-11-19T13:24:02;12.00;99.90
51982;DHT22;37998;53.416;6.730;2023-11-19T13:26:28;12.00;99.90
51982;DHT22;37998;53.416;6.730;2023-11-19T13:28:54;12.00;99.90
51982;DHT22;37998;53.416;6.730;2023-11-19T13:31:20;12.10;99.90
51982;DHT22;37998;53.416;6.730;2023-11-19T13:33:46;12.20;99.90
51982;DHT22;37998;53.416;6.730;2023-11-19T13:36:12;12.10;99.90
51982;DHT22;37998;53.416;6.730;2023-11-19T13:38:38;12.10;99.90
51982;DHT22;37998;53.416;6.730;2023-11-19T13:41:05;12.20;99.90
51982;DHT22;37998;53.416;6.730;2023-11-19T13:43:31;12.20;99.90
51982;DHT22;37998;53.416;6.730;2023-11-19T13:45:57;11.50;99.90
51982;DHT22;37998;53.416;6.730;2023-11-19T13:48:26;12.20;99.90
51982;DHT22;37998;53.416;6.730;2023-11-19T13:50:57;12.30;99.90
51982;DHT22;37998;53.416;6.730;2023-11-19T13:53:23;12.30;99.90
51982;DHT22;37998;53.416;6.730;2023-11-19T13:55:50;12.30;99.90
51982;DHT22;37998;53.416;6.730;2023-11-19T13:58:16;12.30;99.90
51982;DHT22;37998;53.416;6.730;2023-11-19T14:00:42;12.30;99.90
51982;DHT22;37998;53.416;6.730;2023-11-19T14:03:09;12.30;99.90
51982;DHT22;37998;53.416;6.730;2023-11-19T14:05:38;12.30;99.90
51982;DHT22;37998;53.416;6.730;2023-11-19T14:08:05;12.30;99.90
51982;DHT22;37998;53.416;6.730;2023-11-19T14:10:38;12.30;99.90
51982;DHT22;37998;53.416;6.730;2023-11-19T14:13:07;12.30;99.90
51982;DHT22;37998;53.416;6.730;2023-11-19T14:15:33;12.30;99.90
51982;DHT22;37998;53.416;6.730;2023-11-19T14:18:00;12.30;99.90
51982;DHT22;37998;53.416;6.730;2023-11-19T14:20:26;12.30;99.90
51982;DHT22;37998;53.416;6.730;2023-11-19T14:22:52;12.40;99.90
51982;DHT22;37998;53.416;6.730;2023-11-19T14:25:18;12.30;99.90
51982;DHT22;37998;53.416;6.730;2023-11-19T14:27:45;12.20;99.90
51982;DHT22;37998;53.416;6.730;2023-11-19T14:30:14;12.20;99.90
51982;DHT22;37998;53.416;6.730;2023-11-19T14:32:41;12.30;99.90
51982;DHT22;37998;53.416;6.730;2023-11-19T14:35:09;12.20;99.90
51982;DHT22;37998;53.416;6.730;2023-11-19T14:37:35;12.20;99.90
51982;DHT22;37998;53.416;6.730;2023-11-19T14:40:02;12.10;99.90
51982;DHT22;37998;53.416;6.730;2023-11-19T14:42:31;12.10;99.90
51982;DHT22;37998;53.416;6.730;2023-11-19T14:44:57;12.00;99.90
51982;DHT22;37998;53.416;6.730;2023-11-19T14:47:24;12.00;99.90
51982;DHT22;37998;53.416;6.730;2023-11-19T14:49:50;12.00;99.90
51982;DHT22;37998;53.416;6.730;2023-11-19T14:52:17;12.00;99.90
51982;DHT22;37998;53.416;6.730;2023-11-19T14:54:43;12.00;99.90
51982;DHT22;37998;53.416;6.730;2023-11-19T14:57:09;11.90;99.90
51982;DHT22;37998;53.416;6.730;2023-11-19T14:59:35;11.90;99.90
51982;DHT22;37998;53.416;6.730;2023-11-19T15:02:01;12.00;99.90
51982;DHT22;37998;53.416;6.730;2023-11-19T15:04:28;11.80;99.90
51982;DHT22;37998;53.416;6.730;2023-11-19T15:06:58;11.80;99.90
51982;DHT22;37998;53.416;6.730;2023-11-19T15:09:25;11.70;99.90
51982;DHT22;37998;53.416;6.730;2023-11-19T15:11:53;11.70;99.90
51982;DHT22;37998;53.416;6.730;2023-11-19T15:14:19;11.60;99.90
51982;DHT22;37998;53.416;6.730;2023-11-19T15:16:46;11.60;99.90
51982;DHT22;37998;53.416;6.730;2023-11-19T15:19:12;11.60;99.90
51982;DHT22;37998;53.416;6.730;2023-11-19T15:21:40;11.60;99.90
51982;DHT22;37998;53.416;6.730;2023-11-19T15:24:07;11.50;99.90
51982;DHT22;37998;53.416;6.730;2023-11-19T15:26:36;11.50;99.90
51982;DHT22;37998;53.416;6.730;2023-11-19T15:29:04;11.50;99.90
51982;DHT22;37998;53.416;6.730;2023-11-19T15:31:30;11.50;99.90
51982;DHT22;37998;53.416;6.730;2023-11-19T15:33:56;11.40;99.90
51982;DHT22;37998;53.416;6.730;2023-11-19T15:36:23;11.40;99.90
51982;DHT22;37998;53.416;6.730;2023-11-19T15:38:49;11.30;99.90
51982;DHT22;37998;53.416;6.730;2023-11-19T15:41:15;11.30;99.90
51982;DHT22;37998;53.416;6.730;2023-11-19T15:43:40;11.30;99.90
51982;DHT22;37998;53.416;6.730;2023-11-19T15:46:10;11.30;99.90
51982;DHT22;37998;53.416;6.730;2023-11-19T15:48:39;11.20;99.90
51982;DHT22;37998;53.416;6.730;2023-11-19T15:51:05;11.30;99.90
51982;DHT22;37998;53.416;6.730;2023-11-19T15:53:31;11.20;99.90
51982;DHT22;37998;53.416;6.730;2023-11-19T15:55:58;11.20;99.90